Time,TemperatureF,DewpointF,PressureIn,WindDirection,WindDirectionDegrees,WindSpeedMPH,WindSpeedGustMPH,Humidity,HourlyPrecipIn,Conditions,Clouds,dailyrainin,SoftwareType,DateUTC
2013-03-29 00:04:00,36.2,19.0,30.51,SSW,194,1.0,3.0,51,0.00,,,0.00,weatherlink.com 1.10,2013-03-29 04:04:00,
2013-03-29 00:19:00,35.4,20.0,30.51,SSE,159,1.0,3.0,54,0.00,,,0.00,weatherlink.com 1.10,2013-03-29 04:19:00,
2013-03-29 00:35:00,35.1,20.0,30.51,SSE,160,0.0,3.0,55,0.00,,,0.00,weatherlink.com 1.10,2013-03-29 04:35:00,
2013-03-29 00:50:00,34.8,20.0,30.51,SSE,160,2.0,3.0,55,0.00,,,0.00,weatherlink.com 1.10,2013-03-29 04:50:00,
2013-03-29 01:05:00,34.4,21.0,30.51,SSE,160,2.0,3.0,58,0.00,,,0.00,weatherlink.com 1.10,2013-03-29 05:05:00,
2013-03-29 01:20:00,34.1,21.0,30.51,SSE,162,2.0,4.0,58,0.00,,,0.00,weatherlink.com 1.10,2013-03-29 05:20:00,
2013-03-29 01:35:00,34.1,21.0,30.51,SSE,162,2.0,3.0,58,0.00,,,0.00,weatherlink.com 1.10,2013-03-29 05:35:00,
2013-03-29 01:50:00,33.8,20.0,30.51,SSE,162,2.0,3.0,57,0.00,,,0.00,weatherlink.com 1.10,2013-03-29 05:50:00,
2013-03-29 02:05:00,33.2,19.0,30.51,SSE,162,0.0,1.0,57,0.00,,,0.00,weatherlink.com 1.10,2013-03-29 06:05:00,
2013-03-29 02:21:00,32.8,20.0,30.52,SSE,162,1.0,2.0,59,0.00,,,0.00,weatherlink.com 1.10,2013-03-29 06:21:00,
2013-03-29 02:35:00,32.8,20.0,30.52,SSE,163,1.0,3.0,59,0.00,,,0.00,weatherlink.com 1.10,2013-03-29 06:35:00,
2013-03-29 02:50:00,32.3,20.0,30.52,SSE,160,1.0,3.0,61,0.00,,,0.00,weatherlink.com 1.10,2013-03-29 06:50:00,
2013-03-29 03:05:00,31.7,19.0,30.52,SSE,160,4.0,4.0,60,0.00,,,0.00,weatherlink.com 1.10,2013-03-29 07:05:00,
2013-03-29 03:20:00,31.6,19.0,30.52,South,186,0.0,4.0,60,0.00,,,0.00,weatherlink.com 1.10,2013-03-29 07:20:00,
2013-03-29 03:35:00,31.8,20.0,30.52,SSE,162,0.0,4.0,61,0.00,,,0.00,weatherlink.com 1.10,2013-03-29 07:35:00,
2013-03-29 03:50:00,31.4,19.0,30.52,SSE,156,1.0,2.0,61,0.00,,,0.00,weatherlink.com 1.10,2013-03-29 07:50:00,
2013-03-29 04:05:00,31.2,19.0,30.52,SSE,156,0.0,1.0,60,0.00,,,0.00,weatherlink.com 1.10,2013-03-29 08:05:00,
2013-03-29 04:20:00,30.9,18.0,30.52,SSE,158,0.0,2.0,60,0.00,,,0.00,weatherlink.com 1.10,2013-03-29 08:20:00,
2013-03-29 04:50:00,30.8,19.0,30.52,SSE,168,2.0,3.0,61,0.00,,,0.00,weatherlink.com 1.10,2013-03-29 08:50:00,
2013-03-29 05:05:00,31.0,19.0,30.52,SSE,162,0.0,1.0,62,0.00,,,0.00,weatherlink.com 1.10,2013-03-29 09:05:00,
2013-03-29 05:20:00,30.5,20.0,30.52,SSE,162,0.0,2.0,65,0.00,,,0.00,weatherlink.com 1.10,2013-03-29 09:20:00,
2013-03-29 05:35:00,29.8,19.0,30.52,SSE,162,1.0,2.0,65,0.00,,,0.00,weatherlink.com 1.10,2013-03-29 09:35:00,
2013-03-29 05:50:00,29.7,19.0,30.52,SSE,162,1.0,2.0,64,0.00,,,0.00,weatherlink.com 1.10,2013-03-29 09:50:00,
2013-03-29 06:05:00,29.8,18.0,30.52,SSE,162,1.0,2.0,63,0.00,,,0.00,weatherlink.com 1.10,2013-03-29 10:05:00,
2013-03-29 06:20:00,29.9,19.0,30.52,SSE,162,1.0,3.0,64,0.00,,,0.00,weatherlink.com 1.10,2013-03-29 10:20:00,
2013-03-29 06:35:00,29.9,19.0,30.52,SSE,162,0.0,2.0,64,0.00,,,0.00,weatherlink.com 1.10,2013-03-29 10:35:00,
2013-03-29 06:50:00,29.7,19.0,30.51,SW,226,2.0,2.0,64,0.00,,,0.00,weatherlink.com 1.10,2013-03-29 10:50:00,
2013-03-29 07:05:00,29.4,20.0,30.52,SSE,160,2.0,3.0,67,0.00,,,0.00,weatherlink.com 1.10,2013-03-29 11:05:00,
2013-03-29 07:20:00,30.5,20.0,30.53,SSE,160,0.0,3.0,65,0.00,,,0.00,weatherlink.com 1.10,2013-03-29 11:20:00,
2013-03-29 07:35:00,30.5,20.0,30.53,SSE,160,0.0,1.0,65,0.00,,,0.00,weatherlink.com 1.10,2013-03-29 11:35:00,
2013-03-29 07:50:00,30.8,19.0,30.53,SSE,160,0.0,0.0,63,0.00,,,0.00,weatherlink.com 1.10,2013-03-29 11:50:00,
2013-03-29 08:05:00,30.5,21.0,30.54,SSE,159,0.0,0.0,68,0.00,,,0.00,weatherlink.com 1.10,2013-03-29 12:05:00,
2013-03-29 08:20:00,30.1,21.0,30.55,SSE,159,0.0,0.0,70,0.00,,,0.00,weatherlink.com 1.10,2013-03-29 12:20:00,
2013-03-29 08:35:00,29.7,20.0,30.54,SSE,160,0.0,0.0,67,0.00,,,0.00,weatherlink.com 1.10,2013-03-29 12:35:00,
2013-03-29 08:50:00,29.9,20.0,30.55,WSW,245,0.0,0.0,68,0.00,,,0.00,weatherlink.com 1.10,2013-03-29 12:50:00,
2013-03-29 09:05:00,31.3,21.0,30.55,WSW,245,0.0,0.0,67,0.00,,,0.00,weatherlink.com 1.10,2013-03-29 13:05:00,
2013-03-29 09:20:00,32.9,22.0,30.56,WSW,245,0.0,0.0,65,0.00,,,0.00,weatherlink.com 1.10,2013-03-29 13:20:00,
2013-03-29 09:36:00,34.7,22.0,30.56,WSW,245,0.0,0.0,61,0.00,,,0.00,weatherlink.com 1.10,2013-03-29 13:36:00,
2013-03-29 09:51:00,35.2,23.0,30.54,WSW,245,0.0,0.0,61,0.00,,,0.00,weatherlink.com 1.10,2013-03-29 13:51:00,
2013-03-29 10:06:00,36.8,23.0,30.54,ENE,78,1.0,2.0,58,0.00,,,0.00,weatherlink.com 1.10,2013-03-29 14:06:00,
2013-03-29 10:21:00,38.1,23.0,30.55,North,360,1.0,2.0,54,0.00,,,0.00,weatherlink.com 1.10,2013-03-29 14:21:00,
2013-03-29 10:36:00,38.5,24.0,30.55,NW,308,1.0,3.0,56,0.00,,,0.00,weatherlink.com 1.10,2013-03-29 14:36:00,
2013-03-29 10:51:00,39.9,23.0,30.54,NE,44,0.0,3.0,51,0.00,,,0.00,weatherlink.com 1.10,2013-03-29 14:51:00,
2013-03-29 11:21:00,42.5,24.0,30.55,NE,52,3.0,5.0,48,0.00,,,0.00,weatherlink.com 1.10,2013-03-29 15:21:00,
2013-03-29 11:51:00,44.7,23.0,30.54,ENE,70,1.0,4.0,43,0.00,,,0.00,weatherlink.com 1.10,2013-03-29 15:51:00,
2013-03-29 12:21:00,46.0,24.0,30.53,WNW,293,1.0,3.0,43,0.00,,,0.00,weatherlink.com 1.10,2013-03-29 16:21:00,
2013-03-29 12:51:00,47.8,22.0,30.52,NW,319,2.0,4.0,37,0.00,,,0.00,weatherlink.com 1.10,2013-03-29 16:51:00,
2013-03-29 13:06:00,48.0,23.0,30.51,North,358,3.0,6.0,37,0.00,,,0.00,weatherlink.com 1.10,2013-03-29 17:06:00,
2013-03-29 13:21:00,47.7,22.0,30.50,WSW,239,1.0,6.0,36,0.00,,,0.00,weatherlink.com 1.10,2013-03-29 17:21:00,
2013-03-29 13:36:00,48.9,24.0,30.50,NW,308,1.0,4.0,38,0.00,,,0.00,weatherlink.com 1.10,2013-03-29 17:36:00,
2013-03-29 13:51:00,46.3,26.0,30.50,NW,312,3.0,7.0,45,0.00,,,0.00,weatherlink.com 1.10,2013-03-29 17:51:00,
2013-03-29 14:06:00,45.6,27.0,30.50,WNW,294,3.0,4.0,48,0.00,,,0.00,weatherlink.com 1.10,2013-03-29 18:06:00,
2013-03-29 14:21:00,44.7,28.0,30.50,WNW,291,3.0,5.0,52,0.00,,,0.00,weatherlink.com 1.10,2013-03-29 18:21:00,
2013-03-29 14:51:00,44.2,30.0,30.49,NW,308,3.0,4.0,58,0.00,,,0.00,weatherlink.com 1.10,2013-03-29 18:51:00,
2013-03-29 15:06:00,44.3,31.0,30.48,NW,309,3.0,6.0,60,0.00,,,0.00,weatherlink.com 1.10,2013-03-29 19:06:00,
2013-03-29 15:22:00,44.5,31.0,30.48,WNW,294,2.0,2.0,60,0.00,,,0.00,weatherlink.com 1.10,2013-03-29 19:22:00,
2013-03-29 15:36:00,43.9,32.0,30.47,NW,317,3.0,4.0,63,0.00,,,0.00,weatherlink.com 1.10,2013-03-29 19:36:00,
2013-03-29 15:51:00,42.4,33.0,30.48,WNW,288,3.0,5.0,70,0.00,,,0.00,weatherlink.com 1.10,2013-03-29 19:51:00,
2013-03-29 16:06:00,41.4,36.0,30.48,SSW,203,0.0,6.0,80,0.00,,,0.00,weatherlink.com 1.10,2013-03-29 20:06:00,
2013-03-29 16:21:00,40.6,36.0,30.48,WNW,300,0.0,3.0,84,0.01,,,0.01,weatherlink.com 1.10,2013-03-29 20:21:00,
2013-03-29 16:37:00,40.1,36.0,30.47,SW,224,0.0,1.0,85,0.01,,,0.01,weatherlink.com 1.10,2013-03-29 20:37:00,
2013-03-29 16:52:00,39.7,36.0,30.47,SW,225,0.0,1.0,87,0.02,,,0.02,weatherlink.com 1.10,2013-03-29 20:52:00,
2013-03-29 17:07:00,38.6,35.0,30.46,NE,39,4.0,4.0,87,0.03,,,0.03,weatherlink.com 1.10,2013-03-29 21:07:00,
2013-03-29 17:22:00,38.8,36.0,30.46,NW,309,0.0,1.0,91,0.02,,,0.03,weatherlink.com 1.10,2013-03-29 21:22:00,
2013-03-29 17:37:00,38.6,36.0,30.46,ENE,57,2.0,2.0,90,0.03,,,0.04,weatherlink.com 1.10,2013-03-29 21:37:00,
2013-03-29 17:52:00,38.4,36.0,30.46,NE,40,0.0,2.0,90,0.03,,,0.05,weatherlink.com 1.10,2013-03-29 21:52:00,
2013-03-29 18:07:00,38.3,36.0,30.46,NW,309,1.0,2.0,92,0.04,,,0.07,weatherlink.com 1.10,2013-03-29 22:07:00,
2013-03-29 18:22:00,37.9,36.0,30.46,ENE,69,2.0,2.0,92,0.05,,,0.08,weatherlink.com 1.10,2013-03-29 22:22:00,
2013-03-29 18:37:00,37.4,36.0,30.46,ENE,57,0.0,2.0,93,0.06,,,0.10,weatherlink.com 1.10,2013-03-29 22:37:00,
2013-03-29 18:52:00,37.3,36.0,30.46,NE,56,0.0,0.0,94,0.06,,,0.11,weatherlink.com 1.10,2013-03-29 22:52:00,
2013-03-29 19:07:00,37.3,36.0,30.47,NNW,332,0.0,0.0,95,0.05,,,0.12,weatherlink.com 1.10,2013-03-29 23:07:00,
2013-03-29 19:22:00,36.9,36.0,30.47,NNW,345,0.0,0.0,95,0.04,,,0.12,weatherlink.com 1.10,2013-03-29 23:22:00,
2013-03-29 19:37:00,36.6,35.0,30.46,North,9,0.0,0.0,95,0.03,,,0.13,weatherlink.com 1.10,2013-03-29 23:37:00,
2013-03-29 19:52:00,36.4,35.0,30.47,North,9,0.0,0.0,96,0.03,,,0.14,weatherlink.com 1.10,2013-03-29 23:52:00,
2013-03-29 20:07:00,36.2,35.0,30.47,NE,36,0.0,0.0,96,0.02,,,0.14,weatherlink.com 1.10,2013-03-30 00:07:00,
2013-03-29 20:22:00,35.8,35.0,30.47,SE,128,0.0,0.0,96,0.02,,,0.14,weatherlink.com 1.10,2013-03-30 00:22:00,
2013-03-29 20:37:00,35.6,35.0,30.46,SE,127,0.0,0.0,96,0.01,,,0.14,weatherlink.com 1.10,2013-03-30 00:37:00,
2013-03-29 20:52:00,35.3,34.0,30.46,SE,131,0.0,0.0,96,0.00,,,0.14,weatherlink.com 1.10,2013-03-30 00:52:00,
2013-03-29 21:07:00,35.3,34.0,30.46,SSE,154,0.0,0.0,96,0.00,,,0.14,weatherlink.com 1.10,2013-03-30 01:07:00,
2013-03-29 21:22:00,35.3,35.0,30.46,SSE,153,0.0,0.0,97,0.00,,,0.14,weatherlink.com 1.10,2013-03-30 01:22:00,
2013-03-29 21:37:00,35.5,35.0,30.46,SSE,153,0.0,0.0,97,0.00,,,0.14,weatherlink.com 1.10,2013-03-30 01:37:00,
2013-03-29 21:52:00,35.6,35.0,30.47,SSE,153,0.0,0.0,97,0.00,,,0.14,weatherlink.com 1.10,2013-03-30 01:52:00,
2013-03-29 22:07:00,35.6,35.0,30.46,SSE,153,0.0,0.0,97,0.00,,,0.14,weatherlink.com 1.10,2013-03-30 02:07:00,
2013-03-29 22:22:00,35.6,35.0,30.46,South,174,0.0,0.0,97,0.00,,,0.14,weatherlink.com 1.10,2013-03-30 02:22:00,
2013-03-29 22:37:00,35.6,35.0,30.46,South,174,0.0,0.0,97,0.00,,,0.14,weatherlink.com 1.10,2013-03-30 02:37:00,
2013-03-29 22:52:00,35.7,35.0,30.47,South,174,0.0,0.0,97,0.00,,,0.14,weatherlink.com 1.10,2013-03-30 02:52:00,
2013-03-29 23:07:00,35.7,35.0,30.47,South,175,0.0,0.0,97,0.01,,,0.15,weatherlink.com 1.10,2013-03-30 03:07:00,
2013-03-29 23:22:00,35.8,35.0,30.46,South,174,0.0,0.0,97,0.01,,,0.15,weatherlink.com 1.10,2013-03-30 03:22:00,
2013-03-29 23:37:00,35.8,35.0,30.46,South,174,0.0,0.0,97,0.01,,,0.15,weatherlink.com 1.10,2013-03-30 03:37:00,
2013-03-29 23:52:00,35.8,35.0,30.46,South,175,0.0,0.0,97,0.01,,,0.15,weatherlink.com 1.10,2013-03-30 03:52:00,